Latest Coastal Weather Observations for Port Lincoln Airport

IDS60701

Issued at 1:11 am CST Monday 15 April 2024 (issued every 10 minutes, with the page automatically refreshed every 10 minutes)

About coastal observations | Map of coastal stations | Coastal observations for SA | Marine services | Other Formats
Station Details ID: 018192 Name: PORT LINCOLN AWS Lat: -34.60 Lon: 135.88 Height: 8.5 m
Data from the previous 72 hours. | See also: Recent months at Port Lincoln Airport
Date/Time
CST
Wind Sea
Height
m
Swell Vis
km
Cloud Weather Temp
°C
Press
MSL
hPa
Rain since
9am
mm
Dir  Spd
kts
Gust
kts
Height
m
Period
s
Dir
15/01:00am SW 4 5 - - - - 10 Clear - 9.2 1024.6 0.0
15/12:30am WSW 4 5 - - - - 10 - - 9.8 1024.6 0.0
15/12:00am CALM 0 0 - - - - 10 Partly cloudy - 10.0 1024.8 0.0
 
Date/Time
CST
Wind Sea
Height
m
Swell Vis
km
Cloud Weather Temp
°C
Press
MSL
hPa
Rain since
9am
mm
Dir  Spd
kts
Gust
kts
Height
m
Period
s
Dir
14/11:30pm CALM 0 0 - - - - 10 - - 9.6 1024.8 0.0
14/11:00pm CALM 0 0 - - - - 10 - - 10.4 1024.9 0.0
14/10:30pm CALM 0 0 - - - - 10 - - 10.7 1025.1 0.0
14/10:00pm SW 4 5 - - - - 10 - - 11.0 1025.1 0.0
14/09:30pm SSE 6 8 - - - - 10 - - 13.0 1025.0 0.0
14/09:00pm CALM 0 4 - - - - 10 Mostly clear - 12.1 1025.0 0.0
14/08:30pm SE 3 5 - - - - 10 - - 13.3 1024.7 0.0
14/08:00pm SSE 7 8 - - - - 10 - - 13.9 1024.7 0.0
14/07:30pm SSE 8 9 - - - - 10 - - 14.3 1024.4 0.0
14/07:00pm SSE 7 9 - - - - 10 - - 14.4 1024.2 0.0
14/06:30pm SSE 10 13 - - - - 10 - - 15.1 1023.8 0.0
14/06:00pm SE 9 12 - - - - 10 - - 15.7 1023.5 0.0
14/05:30pm SE 11 13 - - - - 10 - - 16.5 1023.2 0.0
14/05:00pm SE 12 14 - - - - 10 - - 16.8 1023.1 0.0
14/04:30pm SE 12 15 - - - - 10 - - 17.3 1022.9 0.0
14/04:00pm SE 12 15 - - - - 10 - - 17.7 1022.8 0.0
14/03:30pm SE 12 15 - - - - 10 Partly cloudy - 17.9 1022.8 0.0
14/03:00pm SE 13 15 - - - - 10 - - 18.0 1022.9 0.0
14/02:30pm SE 11 14 - - - - 10 Partly cloudy - 19.2 1022.7 0.0
14/02:00pm SE 9 13 - - - - 10 Partly cloudy - 19.3 1022.5 0.0
14/01:30pm ESE 10 16 - - - - 10 Partly cloudy - 20.5 1022.7 0.0
14/01:00pm E 11 14 - - - - 10 Partly cloudy - 19.9 1023.0 0.0
14/12:30pm E 10 15 - - - - 10 Partly cloudy - 19.8 1023.4 0.0
14/12:00pm ESE 9 12 - - - - 10 Partly cloudy - 19.5 1023.9 0.0
14/11:30am ESE 7 12 - - - - 10 Partly cloudy - 19.7 1024.1 0.0
14/11:00am SE 5 7 - - - - 10 Partly cloudy - 19.1 1024.0 0.0
14/10:30am SSE 5 7 - - - - 10 Partly cloudy - 18.8 1024.1 0.0
14/10:00am S 7 9 - - - - 10 - - 17.9 1024.2 0.0
14/09:30am SSE 6 9 - - - - 10 - - 17.1 1024.2 0.0
14/09:00am S 4 6 - - - - 10 Mostly cloudy - 16.5 1024.3 0.0
14/08:30am NNW 3 4 - - - - 10 - - 13.9 1024.1 0.0
14/08:00am NNW 4 6 - - - - 10 - - 11.1 1023.9 0.0
14/07:30am WNW 6 8 - - - - 10 - - 9.5 1023.8 0.0
14/07:00am NW 6 7 - - - - 10 - - 7.5 1023.3 0.0
14/06:30am NW 6 7 - - - - 10 - - 7.0 1023.1 0.0
14/06:00am NW 6 8 - - - - 10 Mostly clear - 7.5 1023.1 0.0
14/05:30am NW 6 7 - - - - 10 - - 7.7 1023.0 0.0
14/05:00am NW 5 6 - - - - 10 - - 7.9 1022.9 0.0
14/04:30am WNW 7 8 - - - - 10 - - 8.0 1022.9 0.0
14/04:00am NW 6 7 - - - - 10 Partly cloudy - 8.4 1022.9 0.0
14/03:30am WNW 5 5 - - - - 10 Partly cloudy - 8.8 1023.0 0.0
14/03:00am NW 5 6 - - - - 10 Cloudy - 8.9 1023.2 0.0
14/02:30am NW 4 5 - - - - 10 Partly cloudy - 8.9 1023.6 0.0
14/02:00am NW 1 4 - - - - 10 Cloudy - 9.3 1023.7 0.0
14/01:30am CALM 0 0 - - - - 10 Cloudy - 9.7 1023.7 0.0
14/01:00am CALM 0 0 - - - - 10 Cloudy - 9.3 1023.7 0.0
14/12:30am CALM 0 0 - - - - 10 Partly cloudy - 8.3 1023.8 0.0
14/12:00am CALM 0 0 - - - - 10 Cloudy - 8.7 1023.6 0.0
 
Date/Time
CST
Wind Sea
Height
m
Swell Vis
km
Cloud Weather Temp
°C
Press
MSL
hPa
Rain since
9am
mm
Dir  Spd
kts
Gust
kts
Height
m
Period
s
Dir
13/11:30pm W 4 5 - - - - 10 - - 8.3 1024.2 0.0
13/11:00pm CALM 0 0 - - - - 10 - - 8.0 1024.3 0.0
13/10:30pm CALM 0 0 - - - - 10 - - 9.5 1024.3 0.0
13/10:00pm ESE 2 5 - - - - 10 - - 9.6 1024.5 0.0
13/09:30pm SE 7 9 - - - - 10 - - 11.4 1024.5 0.0
13/09:00pm SE 2 5 - - - - 10 - - 11.4 1024.9 0.0
13/08:30pm SE 5 8 - - - - 10 - - 11.9 1024.9 0.0
13/08:00pm SE 7 9 - - - - 10 - - 11.9 1024.6 0.0
13/07:30pm SE 8 9 - - - - 10 - - 12.9 1024.4 0.0
13/07:00pm ESE 8 8 - - - - 10 - - 11.6 1024.2 0.0
13/06:30pm ESE 7 8 - - - - 10 - - 12.5 1024.1 0.0
13/06:00pm ESE 8 9 - - - - 10 Partly cloudy - 14.2 1023.8 0.0
13/05:30pm ESE 7 8 - - - - 10 Partly cloudy - 16.3 1023.8 0.0
13/05:00pm E 8 9 - - - - 10 Partly cloudy - 16.2 1023.5 0.0
13/04:30pm E 9 11 - - - - 10 Partly cloudy - 16.7 1023.4 0.0
13/04:00pm ENE 9 11 - - - - 10 Partly cloudy - 17.6 1023.2 0.0
13/03:30pm E 9 11 - - - - 10 Partly cloudy - 17.4 1023.4 0.0
13/03:00pm SE 11 13 - - - - 10 Cloudy - 16.8 1023.5 0.0
13/02:30pm ESE 10 13 - - - - 10 Cloudy - 17.3 1023.6 0.0
13/02:00pm E 12 15 - - - - 10 Cloudy - 17.4 1023.8 0.0
13/01:30pm E 10 13 - - - - 10 Partly cloudy - 17.7 1024.1 0.0
13/01:00pm E 10 14 - - - - 10 Partly cloudy - 17.6 1024.7 0.0
13/12:30pm ENE 10 13 - - - - 10 Cloudy - 18.3 1025.1 0.0
13/12:00pm E 9 13 - - - - 10 Cloudy - 18.6 1025.6 0.0
13/11:30am E 9 12 - - - - 10 Cloudy - 17.5 1025.8 0.0
13/11:00am NE 2 6 - - - - 10 Cloudy - 16.9 1026.1 0.0
13/10:30am ESE 4 7 - - - - 10 Partly cloudy - 16.7 1026.2 0.0
13/10:00am S 7 9 - - - - 10 Cloudy - 16.5 1026.4 0.0
13/09:30am S 7 8 - - - - 10 Partly cloudy - 16.0 1026.4 0.0
13/09:00am SW 4 5 - - - - 10 Cloudy - 15.5 1026.2 0.0
13/08:30am WNW 3 4 - - - - 10 Cloudy - 13.6 1026.2 0.0
13/08:00am NNW 4 5 - - - - 10 Cloudy - 12.4 1025.9 0.0
13/07:30am NW 6 7 - - - - 10 Cloudy - 11.1 1025.5 0.0
13/07:00am NNW 4 5 - - - - 10 Cloudy - 10.3 1025.3 0.0
13/06:30am NNW 5 6 - - - - 10 Cloudy - 9.7 1025.2 0.0
13/06:00am NNW 5 6 - - - - 10 Cloudy - 9.1 1025.0 0.0
13/05:30am NW 6 7 - - - - 10 Cloudy - 8.6 1024.8 0.0
13/05:00am NNW 6 6 - - - - 10 Cloudy - 7.9 1024.6 0.0
13/04:30am NW 6 7 - - - - 10 Cloudy - 7.2 1024.5 0.0
13/04:00am NW 6 6 - - - - 10 Partly cloudy - 6.7 1024.5 0.0
13/03:30am NW 6 7 - - - - 10 - - 6.7 1024.4 0.0
13/03:00am NW 7 8 - - - - 10 - - 7.1 1024.6 0.0
13/02:30am NW 6 7 - - - - 10 - - 7.3 1025.0 0.0
13/02:00am NW 6 7 - - - - 10 - - 7.1 1025.1 0.0
13/01:30am NNW 5 6 - - - - 10 - - 8.1 1025.2 0.0
13/01:00am NNW 5 6 - - - - 10 - - 8.8 1025.1 0.0
13/12:30am WNW 3 4 - - - - 10 - - 8.7 1025.0 0.0
13/12:00am CALM 0 0 - - - - 10 - - 9.5 1025.0 0.0
 
Date/Time
CST
Wind Sea
Height
m
Swell Vis
km
Cloud Weather Temp
°C
Press
MSL
hPa
Rain since
9am
mm
Dir  Spd
kts
Gust
kts
Height
m
Period
s
Dir
12/11:30pm CALM 0 0 - - - - 10 Partly cloudy - 11.5 1025.1 0.0
12/11:00pm WSW 1 4 - - - - 10 Cloudy - 11.9 1025.3 0.0
12/10:30pm WSW 3 4 - - - - 10 Partly cloudy - 11.3 1025.3 0.0
12/10:00pm SSW 3 4 - - - - 10 Cloudy - 11.7 1025.3 0.0
12/09:30pm S 5 6 - - - - 10 Partly cloudy - 12.5 1025.3 0.0
12/09:00pm SSW 6 8 - - - - 10 Mostly cloudy - 13.2 1025.2 0.0
12/08:30pm SSW 5 7 - - - - 10 Partly cloudy - 12.7 1025.0 0.0
12/08:00pm SSW 6 8 - - - - 10 - - 12.2 1024.9 0.0
12/07:30pm SW 7 8 - - - - 10 - - 12.9 1025.0 0.0
12/07:00pm SSW 7 9 - - - - 10 - - 13.3 1024.8 0.0
12/06:30pm SSW 9 11 - - - - 10 Cloudy - 14.8 1024.5 0.0
12/06:00pm SSW 11 14 - - - - 10 Mostly cloudy - 15.7 1024.2 0.0
12/05:30pm S 12 15 - - - - 10 Cloudy - 16.9 1023.9 0.0
12/05:00pm SE 11 15 - - - - 10 Cloudy - 17.1 1023.9 0.0
12/04:30pm SE 11 13 - - - - 10 Cloudy - 17.2 1023.7 0.0
12/04:00pm ESE 10 15 - - - - 10 Cloudy - 17.6 1023.8 0.0
12/03:30pm SE 12 16 - - - - 10 Partly cloudy - 17.7 1023.8 0.0
12/03:00pm SE 11 15 - - - - 10 Partly cloudy - 17.7 1023.7 0.0
12/02:30pm SE 11 14 - - - - 10 Cloudy - 18.5 1023.7 0.0
12/02:00pm SE 8 12 - - - - 10 Partly cloudy - 19.1 1023.9 0.0
12/01:30pm SSE 7 11 - - - - 10 Partly cloudy - 19.1 1024.0 0.0
12/01:00pm SSE 6 11 - - - - 10 Cloudy - 17.7 1024.6 0.0
12/12:30pm S 6 9 - - - - 10 Cloudy - 17.8 1025.1 0.0
12/12:00pm SE 5 9 - - - - 10 Cloudy - 17.5 1025.8 0.0
12/11:30am SE 6 11 - - - - 10 Cloudy - 17.3 1026.0 0.0
12/11:00am SSE 7 10 - - - - 10 Cloudy - 17.9 1026.2 0.0
12/10:30am SSE 6 8 - - - - 10 Cloudy - 17.2 1026.4 0.0
12/10:00am SSE 5 7 - - - - 10 Cloudy - 17.2 1026.6 0.0
12/09:30am S 6 8 - - - - 10 Cloudy - 16.7 1026.2 0.0
12/09:00am S 7 10 - - - - 10 Cloudy - 16.8 1026.2 0.0
12/08:30am S 4 6 - - - - 10 Cloudy - 16.3 1026.0 0.0
12/08:00am SSW 4 5 - - - - 10 Cloudy - 15.5 1025.9 0.0
12/07:30am SW 5 6 - - - - 10 Cloudy - 15.1 1025.8 0.0
12/07:00am SSW 6 8 - - - - 10 Cloudy - 15.0 1025.5 0.0
12/06:30am SW 5 7 - - - - 10 Cloudy - 14.6 1025.5 0.0
12/06:00am SW 5 6 - - - - 10 Cloudy - 14.6 1025.2 0.0
12/05:30am SW 5 8 - - - - 10 Cloudy - 14.9 1025.0 0.0
12/05:00am SW 6 8 - - - - 10 Cloudy - 15.0 1024.9 0.0
12/04:30am S 7 9 - - - - 10 Cloudy - 15.3 1024.7 0.0
12/04:00am SSW 5 8 - - - - 10 Cloudy - 15.2 1024.3 0.0
12/03:30am SSW 6 10 - - - - 10 Cloudy - 15.3 1024.2 0.0
12/03:00am SSE 8 11 - - - - 10 Cloudy - 15.4 1024.4 0.0
12/02:30am SE 8 9 - - - - 10 Cloudy - 15.4 1024.7 0.0
12/02:00am SE 9 12 - - - - 10 Cloudy - 15.6 1024.9 0.0
12/01:30am SSE 11 13 - - - - 10 Cloudy - 15.7 1025.1 0.0

Other formats

Comma delimited format used in spreadsheet applications
http://www.bom.gov.au/fwo/IDS60701/IDS60701.95661.axf

JavaScript Object Notation format (JSON) in row-major order
http://www.bom.gov.au/fwo/IDS60701/IDS60701.95661.json

Data quality

Most of these data are generated automatically and are frequently updated. Quality checks on data are not normally performed. It is possible for incorrect values to appear. Refer to information at About Latest Weather Observations and please check the disclaimer before using these data.